Time;durP1;ratioP1;P1;durP2;ratioP2;P2;SDS_P1;SDS_P2;PMS_P1;PMS_P2;Temp;Humidity;BMP_temperature;BMP_pressure;BME280_temperature;BME280_humidity;BME280_pressure;Samples;Min_cycle;Max_cycle;Signal;HPM_P1;HPM_P2
2022/05/13 00:00:23;;;;;;;3.25;1.50;;;;;;;22.17;41.32;101409.13;5011782;28;20037;-59
2022/05/13 00:02:49;;;;;;;1.58;1.48;;;;;;;22.24;41.13;101422.34;5029202;28;20051;-60
2022/05/13 00:05:14;;;;;;;0.95;0.90;;;;;;;22.19;41.37;101409.13;5011846;28;20041;-61
2022/05/13 00:07:40;;;;;;;0.98;0.98;;;;;;;22.25;41.26;101418.84;5030786;28;20116;-60
2022/05/13 00:10:06;;;;;;;2.45;1.30;;;;;;;22.25;41.40;101413.59;5011205;28;20037;-60
2022/05/13 00:12:34;;;;;;;1.30;1.20;;;;;;;22.26;41.48;101415.34;5013726;28;20037;-59
2022/05/13 00:15:00;;;;;;;1.38;1.30;;;;;;;22.26;41.25;101415.34;4994633;28;20041;-59
2022/05/13 00:17:27;;;;;;;1.95;0.93;;;;;;;22.25;41.04;101408.34;4998743;28;20531;-60
2022/05/13 00:19:53;;;;;;;1.35;1.25;;;;;;;22.25;41.17;101408.34;5014073;28;20056;-60
2022/05/13 00:22:19;;;;;;;1.10;1.00;;;;;;;22.25;41.10;101397.84;5013529;28;20382;-59
2022/05/13 00:24:44;;;;;;;1.13;1.05;;;;;;;22.24;41.35;101409.22;5014363;28;20038;-59
2022/05/13 00:27:10;;;;;;;2.80;1.45;;;;;;;22.24;40.98;101406.59;5030249;28;20037;-59
2022/05/13 00:29:36;;;;;;;1.42;1.33;;;;;;;22.23;41.33;101394.34;5004176;28;20025;-60
2022/05/13 00:32:01;;;;;;;1.02;0.80;;;;;;;22.24;41.03;101396.09;5022194;28;20137;-60
2022/05/13 00:34:28;;;;;;;4.68;1.15;;;;;;;22.15;41.20;101387.25;5031574;28;20075;-61
2022/05/13 00:36:56;;;;;;;1.40;1.30;;;;;;;22.24;41.66;101396.97;5011658;28;20029;-60
2022/05/13 00:39:21;;;;;;;1.35;1.20;;;;;;;22.24;41.02;101396.09;5016926;28;20041;-60
2022/05/13 00:41:47;;;;;;;1.10;1.10;;;;;;;22.23;41.30;101391.72;5031929;28;20038;-59
2022/05/13 00:44:13;;;;;;;0.70;0.63;;;;;;;22.24;41.28;101399.59;5022084;28;20040;-59
2022/05/13 00:46:38;;;;;;;1.20;1.10;;;;;;;22.23;41.29;101383.84;5004175;28;20052;-59
2022/05/13 00:49:06;;;;;;;2.45;1.45;;;;;;;22.24;41.28;101388.22;5013861;28;20112;-59
2022/05/13 00:51:39;;;;;;;1.00;1.00;;;;;;;22.23;41.03;101378.59;5017027;28;20063;-60
2022/05/13 00:54:06;;;;;;;4.55;1.80;;;;;;;22.24;41.13;101380.34;5024244;28;20030;-60
2022/05/13 00:56:32;;;;;;;1.02;1.02;;;;;;;22.23;40.88;101378.59;5026478;28;20026;-60
2022/05/13 00:59:00;;;;;;;2.95;1.33;;;;;;;22.13;40.90;101362.72;5016164;28;20091;-60
2022/05/13 01:01:25;;;;;;;1.90;0.85;;;;;;;22.23;41.27;101381.22;5010422;28;20053;-61
2022/05/13 01:03:51;;;;;;;3.40;1.17;;;;;;;22.21;41.18;101380.31;5022427;28;20115;-60
2022/05/13 01:06:21;;;;;;;4.75;1.15;;;;;;;22.23;41.22;101379.44;5002659;28;20060;-60
2022/05/13 01:08:47;;;;;;;1.40;1.10;;;;;;;22.23;40.86;101374.22;4996467;28;20125;-60
2022/05/13 01:11:15;;;;;;;1.05;1.00;;;;;;;22.21;40.89;101369.81;5011052;28;20435;-60
2022/05/13 01:13:44;;;;;;;2.08;1.10;;;;;;;22.22;40.98;101371.59;5011764;28;20068;-60
2022/05/13 01:16:09;;;;;;;4.10;1.48;;;;;;;22.22;41.13;101371.59;5024625;28;20382;-60
2022/05/13 01:18:37;;;;;;;0.85;0.85;;;;;;;22.23;41.03;101368.09;5033048;28;20030;-61
2022/05/13 01:21:06;;;;;;;1.10;1.00;;;;;;;22.22;41.11;101371.59;4996002;28;20048;-61
2022/05/13 01:23:34;;;;;;;1.55;1.27;;;;;;;22.23;40.99;101373.34;5008731;28;20025;-60
2022/05/13 01:26:06;;;;;;;1.48;1.13;;;;;;;22.22;41.28;101367.19;5026645;28;20041;-60
2022/05/13 01:28:38;;;;;;;1.67;1.35;;;;;;;22.23;41.09;101370.72;5016438;28;20493;-59
2022/05/13 01:31:10;;;;;;;0.82;0.82;;;;;;;22.20;40.91;101368.06;4996682;28;20040;-59
2022/05/13 01:33:36;;;;;;;1.42;1.30;;;;;;;22.22;41.05;101371.59;5011067;28;20025;-60
2022/05/13 01:36:04;;;;;;;0.93;0.93;;;;;;;22.22;41.13;101367.19;5000376;28;20025;-60
2022/05/13 01:38:32;;;;;;;2.20;1.50;;;;;;;22.22;40.99;101367.19;4999524;28;20075;-60
2022/05/13 01:40:58;;;;;;;2.03;1.13;;;;;;;22.22;40.97;101371.59;4998539;28;20041;-61
2022/05/13 01:43:24;;;;;;;2.95;1.30;;;;;;;22.22;41.01;101368.97;5008207;28;20040;-60
2022/05/13 01:45:50;;;;;;;0.88;0.88;;;;;;;22.22;40.92;101361.09;5004351;28;20467;-60
2022/05/13 01:48:16;;;;;;;2.83;1.13;;;;;;;22.20;41.37;101368.06;4996153;28;20083;-60
2022/05/13 01:50:41;;;;;;;6.38;1.15;;;;;;;22.16;40.99;101357.53;5015087;28;20036;-59
2022/05/13 01:53:08;;;;;;;2.28;1.33;;;;;;;22.21;40.91;101362.81;5011907;28;20040;-61
2022/05/13 01:55:33;;;;;;;1.17;1.08;;;;;;;22.21;40.94;101360.19;5011163;28;20048;-60
2022/05/13 01:57:58;;;;;;;1.17;1.08;;;;;;;22.21;41.25;101365.44;5014801;28;20030;-60
2022/05/13 02:00:24;;;;;;;1.20;1.17;;;;;;;22.20;40.99;101365.44;5011467;28;20092;-60
2022/05/13 02:05:34;;;;;;;4.55;1.65;;;;;;;22.21;40.77;101364.56;5025209;28;20100;-60
2022/05/13 02:07:59;;;;;;;3.45;1.23;;;;;;;22.20;40.94;101362.81;5032181;28;20045;-61
2022/05/13 02:10:25;;;;;;;1.00;1.00;;;;;;;22.20;41.16;101360.19;5005565;28;20030;-60
2022/05/13 02:12:50;;;;;;;1.70;1.13;;;;;;;22.21;41.16;101359.31;5004353;28;20395;-60
2022/05/13 02:15:16;;;;;;;0.88;0.88;;;;;;;22.20;41.00;101363.66;5023811;28;20022;-61
2022/05/13 02:17:41;;;;;;;3.58;1.25;;;;;;;22.17;40.89;101356.66;5020935;28;20071;-61
2022/05/13 02:20:08;;;;;;;1.30;0.80;;;;;;;22.20;41.16;101357.56;5020838;28;20034;-60
2022/05/13 02:22:33;;;;;;;1.00;0.95;;;;;;;22.20;41.11;101347.06;5013761;28;20033;-60
2022/05/13 02:24:59;;;;;;;2.70;1.27;;;;;;;22.21;40.94;101351.44;5012195;28;20057;-61
2022/05/13 02:27:25;;;;;;;0.98;0.98;;;;;;;22.21;41.04;101343.59;5013780;28;20029;-60
2022/05/13 02:29:50;;;;;;;1.00;0.95;;;;;;;22.20;41.20;101342.69;5014229;28;20095;-60
2022/05/13 02:32:15;;;;;;;1.10;1.00;;;;;;;22.18;40.99;101340.06;4999676;28;20466;-60
2022/05/13 02:34:41;;;;;;;2.97;1.35;;;;;;;22.20;40.87;101352.31;5031233;28;20038;-60
2022/05/13 02:37:06;;;;;;;1.00;1.00;;;;;;;22.16;40.96;101336.53;5031256;28;20048;-61
2022/05/13 02:39:31;;;;;;;1.85;1.05;;;;;;;22.18;41.04;101334.81;5017667;28;20655;-60
2022/05/13 02:41:57;;;;;;;1.30;1.05;;;;;;;22.16;41.10;101336.53;5021137;28;20481;-61
2022/05/13 02:44:23;;;;;;;0.98;0.98;;;;;;;22.19;41.19;101338.31;4995809;28;20136;-60
2022/05/13 02:46:48;;;;;;;1.02;1.02;;;;;;;22.17;41.14;101327.81;5014985;28;20440;-60
2022/05/13 02:49:14;;;;;;;1.63;0.95;;;;;;;22.20;41.02;101326.06;5029840;28;20029;-61
2022/05/13 02:51:41;;;;;;;1.45;1.35;;;;;;;22.18;41.04;101324.31;4997498;28;20471;-62
2022/05/13 02:54:07;;;;;;;1.50;1.40;;;;;;;22.18;41.02;101324.31;5023088;28;20034;-60
2022/05/13 02:56:33;;;;;;;1.05;1.00;;;;;;;22.17;40.86;101322.56;5023649;28;20041;-61
2022/05/13 02:58:58;;;;;;;1.23;1.13;;;;;;;22.17;40.95;101316.41;5008929;28;20132;-61
2022/05/13 03:01:26;;;;;;;2.75;1.17;;;;;;;22.18;40.89;101313.81;5023296;28;20462;-60
2022/05/13 03:03:52;;;;;;;1.65;1.33;;;;;;;22.17;40.94;101312.06;5016480;28;20087;-61
2022/05/13 03:06:19;;;;;;;1.38;1.27;;;;;;;22.17;40.78;101311.16;4921815;22;20427;-53
2022/05/13 03:08:45;;;;;;;1.33;1.23;;;;;;;22.17;40.86;101301.56;5052270;28;20040;-49
2022/05/13 03:11:11;;;;;;;2.88;1.80;;;;;;;22.16;41.00;101310.31;5029766;28;20028;-56
2022/05/13 03:13:36;;;;;;;1.15;1.10;;;;;;;22.15;40.69;101298.06;5036129;28;20035;-50
2022/05/13 03:16:07;;;;;;;2.42;1.25;;;;;;;22.16;40.94;101296.28;5046730;28;20071;-50
2022/05/13 03:18:32;;;;;;;1.05;1.00;;;;;;;22.16;40.76;101299.81;5035190;28;20381;-51
2022/05/13 03:20:58;;;;;;;0.82;0.80;;;;;;;22.16;40.84;101305.06;5049951;28;20971;-48
2022/05/13 03:23:23;;;;;;;2.95;1.25;;;;;;;22.13;40.92;101294.53;5047856;28;20549;-49
2022/05/13 03:25:48;;;;;;;0.73;0.73;;;;;;;22.15;41.09;101292.81;5050729;28;20035;-50
2022/05/13 03:28:14;;;;;;;1.00;1.00;;;;;;;22.15;41.27;101291.91;5044043;28;20029;-51
2022/05/13 03:30:39;;;;;;;1.30;1.20;;;;;;;22.15;40.77;101282.31;5051508;28;20040;-50
2022/05/13 03:33:05;;;;;;;1.30;1.20;;;;;;;22.14;40.67;101283.16;5050762;28;20029;-50
2022/05/13 03:35:30;;;;;;;1.50;1.38;;;;;;;22.15;41.34;101277.06;5050287;28;20032;-50
2022/05/13 03:37:57;;;;;;;2.47;1.17;;;;;;;22.09;41.09;101263.88;5045614;28;20064;-51
2022/05/13 03:40:22;;;;;;;1.17;1.13;;;;;;;22.16;41.01;101278.81;5033652;28;20032;-54
2022/05/13 03:42:47;;;;;;;3.67;1.83;;;;;;;22.13;40.91;101273.53;5046091;28;20036;-53
2022/05/13 03:45:34;;;;;;;1.20;1.10;;;;;;;22.15;40.97;101269.19;5050314;28;20025;-49
2022/05/13 03:48:00;;;;;;;0.98;0.98;;;;;;;22.15;40.78;101269.19;5043403;28;20082;-52
2022/05/13 03:50:27;;;;;;;2.35;1.52;;;;;;;22.15;40.84;101271.81;5046346;28;20481;-54
2022/05/13 03:52:52;;;;;;;1.13;1.10;;;;;;;22.16;40.81;101270.06;5026406;28;20060;-54
2022/05/13 03:55:18;;;;;;;0.98;0.98;;;;;;;22.15;40.87;101266.56;5057845;28;20460;-53
2022/05/13 03:57:43;;;;;;;2.58;1.40;;;;;;;22.14;40.73;101267.44;5036993;28;20037;-50
2022/05/13 04:00:09;;;;;;;1.20;1.15;;;;;;;22.14;40.84;101250.78;5025404;28;20473;-48
2022/05/13 04:02:35;;;;;;;2.35;1.42;;;;;;;22.14;41.03;101253.41;5036431;28;20039;-51
2022/05/13 04:10:28;;;;;;;1.10;1.10;;;;;;;22.14;41.07;101259.56;5053852;28;20416;-53
2022/05/13 04:18:22;;;;;;;1.57;1.47;;;;;;;22.17;40.93;101251.72;5050903;28;20043;-52
2022/05/13 04:20:47;;;;;;;1.45;1.35;;;;;;;22.16;40.95;101249.97;5052035;28;20025;-52
2022/05/13 04:23:13;;;;;;;1.73;1.17;;;;;;;22.15;40.89;101250.84;5046155;28;20051;-53
2022/05/13 04:25:39;;;;;;;1.35;1.10;;;;;;;22.15;40.70;101250.84;5053272;28;20041;-53
2022/05/13 04:28:04;;;;;;;1.05;0.95;;;;;;;22.15;41.06;101245.59;5052131;28;20400;-51
2022/05/13 04:30:29;;;;;;;2.40;1.17;;;;;;;22.15;40.91;101245.59;5049821;28;20052;-49
2022/05/13 04:32:55;;;;;;;2.65;1.50;;;;;;;22.15;40.73;101239.44;5053484;28;20041;-53
2022/05/13 04:35:20;;;;;;;0.88;0.88;;;;;;;22.12;40.75;101237.69;5063431;28;20036;-49
2022/05/13 04:37:45;;;;;;;1.15;1.00;;;;;;;22.15;40.97;101245.59;5049132;28;20039;-53
2022/05/13 04:40:11;;;;;;;1.30;1.20;;;;;;;22.14;40.98;101243.81;5060303;28;20048;-49
2022/05/13 04:42:52;;;;;;;2.63;1.27;;;;;;;22.14;41.01;101241.19;5045729;28;20119;-55
2022/05/13 04:45:26;;;;;;;1.63;1.20;;;;;;;22.12;41.04;101234.16;5045497;28;20040;-52
2022/05/13 04:48:21;;;;;;;0.80;0.80;;;;;;;22.15;40.92;101240.34;5037805;28;20112;-47
2022/05/13 04:50:58;;;;;;;1.15;1.08;;;;;;;22.15;40.89;101245.59;5046785;28;20075;-50
2022/05/13 04:53:29;;;;;;;1.60;1.30;;;;;;;22.14;40.91;101254.31;5047013;28;20029;-49
2022/05/13 04:55:55;;;;;;;1.15;1.15;;;;;;;22.16;40.90;101256.94;5041848;28;20028;-50
2022/05/13 04:58:24;;;;;;;2.17;1.33;;;;;;;22.15;40.64;101260.44;5036349;28;20036;-52
2022/05/13 05:00:51;;;;;;;1.10;1.10;;;;;;;22.14;40.78;101264.81;5035122;28;20037;-49
2022/05/13 05:03:17;;;;;;;1.73;1.50;;;;;;;22.14;40.76;101270.06;5029202;28;20021;-46
2022/05/13 05:05:43;;;;;;;4.43;1.65;;;;;;;22.15;40.92;101277.06;5068424;28;20039;-47
2022/05/13 05:08:10;;;;;;;1.70;1.60;;;;;;;22.09;40.37;101271.75;5065068;28;20044;-51
2022/05/13 05:10:36;;;;;;;1.42;1.35;;;;;;;22.15;40.92;101282.31;5049033;28;20039;-51
2022/05/13 05:13:01;;;;;;;0.57;0.57;;;;;;;22.14;40.86;101274.41;5029131;28;20033;-53
2022/05/13 05:15:27;;;;;;;0.80;0.80;;;;;;;22.14;40.55;101275.31;5049181;28;20160;-53
2022/05/13 05:17:55;;;;;;;3.83;1.20;;;;;;;22.14;41.00;101280.56;5054009;28;20077;-52
2022/05/13 05:20:21;;;;;;;1.30;1.20;;;;;;;22.11;40.65;101275.28;5028014;28;20516;-53
2022/05/13 05:22:47;;;;;;;1.58;1.30;;;;;;;22.14;40.73;101285.78;5048535;28;20075;-55
2022/05/13 05:25:14;;;;;;;3.63;1.05;;;;;;;22.14;40.67;101296.28;5045671;28;20166;-53
2022/05/13 05:27:39;;;;;;;2.75;1.50;;;;;;;22.14;40.97;101295.38;5054078;28;20093;-51
2022/05/13 05:30:05;;;;;;;3.00;1.30;;;;;;;22.14;40.78;101296.28;5053740;28;20462;-52
2022/05/13 05:32:31;;;;;;;1.40;1.30;;;;;;;22.15;40.69;101289.28;5032981;28;20045;-49
2022/05/13 05:34:56;;;;;;;1.05;1.05;;;;;;;22.10;40.81;101284.00;5055686;28;20036;-52
2022/05/13 05:37:21;;;;;;;2.80;1.35;;;;;;;22.14;40.72;101285.78;5073937;28;20032;-52
2022/05/13 05:39:47;;;;;;;1.38;1.27;;;;;;;22.14;40.49;101295.38;5048693;28;20034;-52
2022/05/13 05:42:12;;;;;;;1.15;1.15;;;;;;;22.12;40.73;101292.78;5065944;28;20067;-54
2022/05/13 05:44:37;;;;;;;0.93;0.93;;;;;;;22.14;40.72;101288.41;5026595;28;20085;-52
2022/05/13 05:47:04;;;;;;;3.00;0.85;;;;;;;22.13;40.76;101289.28;5057072;28;20103;-54
2022/05/13 05:49:29;;;;;;;3.38;1.90;;;;;;;22.13;40.61;101283.13;5053094;28;20040;-53
2022/05/13 05:51:55;;;;;;;1.42;1.33;;;;;;;22.13;40.80;101284.03;5040086;28;20033;-49
2022/05/13 05:57:14;;;;;;;2.30;1.42;;;;;;;22.14;40.69;101296.28;5048925;28;20081;-51
2022/05/13 05:59:41;;;;;;;0.90;0.90;;;;;;;22.13;40.84;101284.03;5057507;28;20463;-52
2022/05/13 06:02:07;;;;;;;0.80;0.80;;;;;;;22.14;40.18;101296.28;5035938;28;20079;-50
2022/05/13 06:04:32;;;;;;;1.55;1.45;;;;;;;22.13;40.42;101284.03;5051093;28;20032;-49
2022/05/13 06:06:58;;;;;;;1.10;1.02;;;;;;;22.14;40.94;101285.78;5041618;28;20036;-52
2022/05/13 06:09:24;;;;;;;1.60;1.10;;;;;;;22.14;40.50;101285.78;5042119;28;20404;-50
2022/05/13 06:11:49;;;;;;;1.60;1.40;;;;;;;22.15;41.13;101282.31;5054035;28;20043;-55
2022/05/13 06:14:15;;;;;;;1.73;1.63;;;;;;;22.13;40.67;101294.53;5051183;28;20028;-54
2022/05/13 06:16:40;;;;;;;9.73;1.42;;;;;;;22.13;40.40;101278.78;5054935;28;20604;-50
2022/05/13 06:19:06;;;;;;;2.45;1.23;;;;;;;22.14;40.90;101275.31;5045535;28;20039;-53
2022/05/13 06:21:34;;;;;;;1.40;1.30;;;;;;;22.10;40.85;101270.88;5030455;28;20037;-53
2022/05/13 06:23:59;;;;;;;1.20;1.13;;;;;;;22.14;40.42;101270.06;5028347;28;20090;-53
2022/05/13 06:26:25;;;;;;;2.05;1.75;;;;;;;22.15;40.60;101271.81;5061637;28;20036;-52
2022/05/13 06:28:51;;;;;;;3.58;1.10;;;;;;;22.14;40.57;101263.91;5021595;28;20068;-53
2022/05/13 06:31:18;;;;;;;1.25;1.15;;;;;;;22.14;40.66;101270.06;5048759;28;20033;-50
2022/05/13 06:33:44;;;;;;;1.10;1.00;;;;;;;22.13;40.72;101268.28;5056165;28;20032;-54
2022/05/13 06:36:09;;;;;;;1.00;0.90;;;;;;;22.13;40.53;101263.06;5068132;28;20464;-52
2022/05/13 06:38:37;;;;;;;1.52;1.42;;;;;;;22.14;40.53;101264.81;5061479;28;20048;-52
2022/05/13 06:41:02;;;;;;;1.38;1.27;;;;;;;22.04;40.41;101247.22;5070133;28;20037;-50
2022/05/13 06:43:28;;;;;;;1.27;1.17;;;;;;;22.12;40.48;101266.53;5051120;28;20024;-56
2022/05/13 06:45:55;;;;;;;2.42;1.40;;;;;;;22.14;40.77;101272.69;5049715;28;20037;-52
2022/05/13 06:48:20;;;;;;;1.10;1.00;;;;;;;22.12;40.48;101271.78;5055790;28;20074;-50
2022/05/13 06:50:47;;;;;;;1.30;1.20;;;;;;;22.12;40.72;101273.50;5035306;28;20024;-50
2022/05/13 06:53:14;;;;;;;1.00;1.00;;;;;;;22.11;40.67;101270.03;5032563;28;20089;-49
2022/05/13 06:55:40;;;;;;;1.38;1.10;;;;;;;22.14;40.49;101282.28;5055078;28;20067;-49
2022/05/13 06:58:06;;;;;;;1.27;1.25;;;;;;;22.13;40.65;101298.88;5047196;28;20370;-53
2022/05/13 07:00:32;;;;;;;1.35;1.25;;;;;;;22.15;40.56;101292.81;5046723;28;20047;-52
2022/05/13 07:02:57;;;;;;;1.42;1.33;;;;;;;22.13;40.60;101288.38;5061581;28;20473;-47
2022/05/13 07:05:23;;;;;;;1.52;1.38;;;;;;;22.14;40.70;101285.78;5045495;28;20029;-52
2022/05/13 07:07:48;;;;;;;0.82;0.82;;;;;;;22.14;40.64;101274.41;5055303;28;20059;-53
2022/05/13 07:10:14;;;;;;;1.45;0.98;;;;;;;22.13;40.35;101277.91;5039343;28;20123;-53
2022/05/13 07:12:40;;;;;;;1.23;1.13;;;;;;;22.14;40.18;101275.31;5039395;28;20028;-51
2022/05/13 07:15:07;;;;;;;0.85;0.85;;;;;;;22.14;40.50;101280.56;5035783;28;20036;-53
2022/05/13 07:17:35;;;;;;;1.75;1.63;;;;;;;22.13;40.54;101276.16;5055204;28;20036;-53
2022/05/13 07:20:00;;;;;;;1.17;1.08;;;;;;;22.14;40.40;101284.91;5036766;28;20025;-54
2022/05/13 07:22:26;;;;;;;1.55;1.45;;;;;;;22.12;40.61;101287.53;5048648;28;20024;-54
2022/05/13 07:24:51;;;;;;;1.20;1.15;;;;;;;22.13;40.63;101309.38;5038368;28;20033;-50
2022/05/13 07:27:17;;;;;;;1.08;1.08;;;;;;;22.14;40.52;101305.88;5041351;28;20438;-53
2022/05/13 07:29:45;;;;;;;1.80;1.05;;;;;;;22.14;40.39;101305.88;5068207;28;20040;-50
2022/05/13 07:32:10;;;;;;;2.28;0.90;;;;;;;22.11;40.66;101300.59;5042233;28;20115;-54
2022/05/13 07:34:36;;;;;;;1.45;1.35;;;;;;;22.11;40.54;101304.13;5056590;28;20122;-50
2022/05/13 07:37:01;;;;;;;1.45;1.35;;;;;;;22.15;40.39;101308.53;5061319;28;20044;-53
2022/05/13 07:42:11;;;;;;;1.20;1.13;;;;;;;22.15;40.41;101308.53;5045939;28;20101;-49
2022/05/13 07:44:37;;;;;;;1.10;1.10;;;;;;;22.16;40.66;101312.03;5068936;28;20119;-51
2022/05/13 07:47:04;;;;;;;3.42;1.65;;;;;;;22.16;40.12;101310.31;5033406;28;20424;-52
2022/05/13 07:49:29;;;;;;;1.50;1.40;;;;;;;22.16;40.40;101315.56;5047994;28;20150;-57
2022/05/13 07:51:57;;;;;;;2.60;1.17;;;;;;;22.11;40.77;101306.75;5038611;28;20485;-52
2022/05/13 07:54:22;;;;;;;2.00;1.10;;;;;;;22.16;40.38;101314.66;5048480;28;20083;-50
2022/05/13 07:56:48;;;;;;;1.52;1.38;;;;;;;22.14;40.34;101317.28;5052415;28;20113;-51
2022/05/13 07:59:14;;;;;;;2.40;1.55;;;;;;;22.16;40.16;101318.16;5039537;28;20105;-52
2022/05/13 08:01:39;;;;;;;2.10;1.08;;;;;;;22.16;40.39;101315.56;5047736;28;20090;-56
2022/05/13 08:04:11;;;;;;;5.07;1.27;;;;;;;22.15;40.60;101319.03;5069928;28;20389;-52
2022/05/13 08:06:37;;;;;;;1.33;1.02;;;;;;;22.11;40.33;101304.13;5052734;28;20093;-54
2022/05/13 08:09:02;;;;;;;0.90;0.90;;;;;;;22.17;40.59;101319.94;5051097;28;20021;-53
2022/05/13 08:11:31;;;;;;;0.82;0.82;;;;;;;22.18;40.39;101319.06;5064570;28;20060;-50
2022/05/13 08:13:57;;;;;;;1.88;1.48;;;;;;;22.16;40.34;101320.78;5049363;28;20127;-52
2022/05/13 08:16:29;;;;;;;1.05;1.05;;;;;;;22.20;40.42;101331.31;5031290;28;20128;-49
2022/05/13 08:18:58;;;;;;;1.45;1.20;;;;;;;22.20;40.12;101326.94;5033484;28;20035;-49
2022/05/13 08:21:27;;;;;;;1.70;1.08;;;;;;;22.20;40.76;101321.69;5037572;28;20027;-53
2022/05/13 08:23:52;;;;;;;1.70;1.45;;;;;;;22.20;40.48;101326.94;5037744;28;20066;-49
2022/05/13 08:26:18;;;;;;;1.00;1.00;;;;;;;22.21;40.37;101328.72;5037650;28;20024;-49
2022/05/13 08:28:45;;;;;;;1.10;1.00;;;;;;;22.17;40.58;101322.56;5072286;28;20033;-53
2022/05/13 08:31:11;;;;;;;3.08;1.30;;;;;;;22.21;40.49;101344.44;5052919;28;20029;-53
2022/05/13 08:33:37;;;;;;;1.40;1.30;;;;;;;22.21;40.32;101338.34;5063787;28;20489;-47
2022/05/13 08:36:04;;;;;;;1.70;1.10;;;;;;;22.20;40.50;101347.06;5050518;28;20074;-54
2022/05/13 08:38:38;;;;;;;1.55;0.82;;;;;;;22.21;40.76;101346.22;5037467;28;20029;-53
2022/05/13 08:41:09;;;;;;;1.20;1.20;;;;;;;22.21;40.30;101341.81;5037881;28;20530;-52
2022/05/13 08:43:44;;;;;;;1.90;1.20;;;;;;;22.22;40.53;101345.34;5083446;28;20021;-56
2022/05/13 08:46:28;;;;;;;1.98;1.25;;;;;;;22.23;40.54;101347.09;5063098;28;20037;-48
2022/05/13 08:49:08;;;;;;;2.00;1.17;;;;;;;22.23;40.63;101347.09;5070319;28;20020;-51
2022/05/13 08:51:41;;;;;;;1.08;1.00;;;;;;;22.17;40.37;101338.28;5046121;28;20289;-51
2022/05/13 08:54:14;;;;;;;1.90;1.25;;;;;;;22.26;40.40;101358.50;5020808;28;20040;-53
2022/05/13 08:56:41;;;;;;;1.45;1.27;;;;;;;22.22;40.25;101345.34;5052795;28;20107;-50
2022/05/13 08:59:13;;;;;;;1.60;1.27;;;;;;;22.25;40.41;101350.63;5025757;28;20029;-54
2022/05/13 09:01:44;;;;;;;2.35;1.08;;;;;;;22.26;40.46;101348.00;5036188;28;20071;-54
2022/05/13 09:04:24;;;;;;;1.50;1.38;;;;;;;22.13;40.58;101328.63;5047009;28;20150;-54
2022/05/13 09:06:59;;;;;;;1.15;1.15;;;;;;;22.26;40.47;101347.16;5043744;28;20036;-53
2022/05/13 09:09:25;;;;;;;3.50;1.00;;;;;;;22.26;40.55;101352.38;5034271;28;20439;-53
2022/05/13 09:11:55;;;;;;;1.00;1.00;;;;;;;22.21;40.56;101343.59;5052394;28;20461;-57
2022/05/13 09:14:53;;;;;;;2.70;1.33;;;;;;;22.28;40.60;101350.66;5049152;28;20083;-55
2022/05/13 09:17:33;;;;;;;1.35;0.90;;;;;;;22.30;40.41;101348.94;5048790;28;20313;-53
2022/05/13 09:20:24;;;;;;;3.50;1.45;;;;;;;22.30;40.60;101354.19;5064559;28;20381;-52
2022/05/13 09:23:01;;;;;;;1.35;1.25;;;;;;;22.30;40.63;101344.59;5055326;28;20029;-53
2022/05/13 09:25:53;;;;;;;1.60;1.40;;;;;;;22.32;40.36;101347.22;5056595;28;20393;-51
2022/05/13 09:28:19;;;;;;;2.10;1.42;;;;;;;22.34;40.67;101350.72;5051099;28;20462;-54
2022/05/13 09:30:47;;;;;;;1.40;1.30;;;;;;;22.34;40.39;101345.50;5048683;28;20035;-54
2022/05/13 09:33:33;;;;;;;5.75;2.00;;;;;;;22.35;40.48;101347.25;5052379;28;20048;-52
2022/05/13 09:36:24;;;;;;;4.88;1.65;;;;;;;22.36;40.50;101343.75;5075011;28;20033;-50
2022/05/13 09:38:53;;;;;;;1.55;1.35;;;;;;;22.36;40.36;101328.00;5056511;28;20036;-53
2022/05/13 09:41:33;;;;;;;1.10;1.10;;;;;;;22.36;40.34;101343.75;5055978;28;20024;-50
2022/05/13 09:44:09;;;;;;;1.10;1.10;;;;;;;22.36;40.31;101346.38;5038447;28;20500;-51
2022/05/13 09:46:41;;;;;;;4.55;1.38;;;;;;;22.36;40.62;101349.00;5054953;28;20024;-52
2022/05/13 09:49:21;;;;;;;1.48;0.90;;;;;;;22.36;40.37;101345.53;4917081;22;20045;-60
2022/05/13 09:51:54;;;;;;;0.88;0.88;;;;;;;22.35;40.35;101352.50;5047461;28;20052;-60
2022/05/13 09:54:33;;;;;;;1.30;1.20;;;;;;;22.35;40.36;101351.63;5012730;28;20029;-61
2022/05/13 09:57:21;;;;;;;1.77;1.67;;;;;;;22.35;40.44;101351.63;5007342;28;20465;-60
2022/05/13 09:59:59;;;;;;;1.48;1.20;;;;;;;22.37;40.55;101353.41;5028472;28;20033;-61
2022/05/13 10:02:32;;;;;;;3.38;1.48;;;;;;;22.36;40.81;101348.16;5023953;28;20033;-61
2022/05/13 10:05:20;;;;;;;1.70;1.60;;;;;;;22.36;40.25;101359.50;5027881;28;20077;-61
2022/05/13 10:08:08;;;;;;;1.13;1.13;;;;;;;22.35;40.32;101347.25;5021014;28;20025;-61
2022/05/13 10:13:59;;;;;;;1.25;1.13;;;;;;;22.32;40.49;101353.34;5032862;28;20039;-61
2022/05/13 10:16:31;;;;;;;1.38;1.27;;;;;;;22.23;40.51;101339.22;5010726;28;20029;-61
2022/05/13 10:19:17;;;;;;;5.15;1.83;;;;;;;22.33;40.43;101351.59;5010461;28;20486;-61
2022/05/13 10:22:15;;;;;;;1.80;1.70;;;;;;;22.37;40.37;101345.53;5006992;28;20375;-61
2022/05/13 10:24:49;;;;;;;1.67;1.55;;;;;;;22.35;40.55;101333.25;5024303;28;20037;-60
2022/05/13 10:27:49;;;;;;;1.30;1.20;;;;;;;22.34;40.64;101345.50;5014019;28;20107;-60
2022/05/13 10:30:26;;;;;;;2.03;1.60;;;;;;;22.31;40.62;101346.34;5014052;28;20274;-60
2022/05/13 10:33:03;;;;;;;2.35;0.98;;;;;;;22.30;40.44;101375.19;5005958;28;20029;-60
2022/05/13 10:35:34;;;;;;;2.63;1.45;;;;;;;22.30;40.52;101380.44;5027233;28;20116;-60
2022/05/13 10:38:08;;;;;;;2.45;1.40;;;;;;;22.27;40.54;101385.63;5010717;28;20035;-60
2022/05/13 10:40:36;;;;;;;4.93;1.40;;;;;;;22.26;40.29;101399.63;5011202;28;20171;-59
2022/05/13 10:43:10;;;;;;;1.50;1.40;;;;;;;22.28;40.50;101403.13;5033509;28;20037;-59
2022/05/13 10:45:37;;;;;;;1.67;1.58;;;;;;;22.26;40.41;101402.25;5014088;28;20037;-59
2022/05/13 10:48:02;;;;;;;1.40;1.30;;;;;;;22.28;40.60;101392.66;5028550;28;20061;-60
2022/05/13 10:50:49;;;;;;;1.10;0.90;;;;;;;22.31;40.82;101397.94;5040843;28;20064;-60
2022/05/13 10:53:27;;;;;;;1.58;1.48;;;;;;;22.33;40.80;101401.47;5019935;28;20091;-61
2022/05/13 10:56:16;;;;;;;1.52;1.25;;;;;;;22.33;40.91;101396.22;5047615;28;20107;-60
2022/05/13 10:59:05;;;;;;;1.63;1.52;;;;;;;22.34;40.94;101392.72;5029789;28;20083;-59
2022/05/13 11:01:45;;;;;;;1.27;1.17;;;;;;;22.37;40.67;101398.00;5020122;28;20033;-59
2022/05/13 11:04:36;;;;;;;1.20;1.15;;;;;;;22.39;40.59;101393.66;5028679;28;20025;-59
2022/05/13 11:07:17;;;;;;;5.53;1.70;;;;;;;22.37;40.48;101392.75;4973990;28;20059;-59
2022/05/13 11:09:54;;;;;;;6.38;3.13;;;;;;;22.38;40.78;101394.53;5043253;28;20031;-60
2022/05/13 11:12:22;;;;;;;11.18;2.75;;;;;;;22.38;41.35;101399.78;5011765;28;20037;-60
2022/05/13 11:15:01;;;;;;;22.27;3.65;;;;;;;22.29;41.10;101394.41;5039488;28;20051;-59
2022/05/13 11:17:39;;;;;;;10.40;3.10;;;;;;;22.32;40.98;101389.19;5009024;28;20546;-59
2022/05/13 11:20:44;;;;;;;14.35;4.20;;;;;;;22.38;40.96;101384.03;5019801;28;20030;-60
2022/05/13 11:23:18;;;;;;;6.88;3.50;;;;;;;22.38;40.92;101370.91;4948301;28;20066;-60
2022/05/13 11:26:08;;;;;;;22.88;7.82;;;;;;;22.46;41.24;101392.91;5032278;28;20474;-60
2022/05/13 11:28:53;;;;;;;13.65;4.15;;;;;;;22.46;41.20;101387.66;5034610;28;20103;-61
2022/05/13 11:31:40;;;;;;;15.50;3.85;;;;;;;22.44;41.02;101405.09;5010782;28;20033;-59
2022/05/13 11:34:26;;;;;;;9.80;4.13;;;;;;;22.43;40.96;101402.47;5023382;28;20045;-60
2022/05/13 11:37:02;;;;;;;7.13;3.50;;;;;;;22.42;40.94;101391.06;5040856;28;20033;-60
2022/05/13 11:39:52;;;;;;;15.43;4.70;;;;;;;22.42;41.22;101391.06;5014991;28;20462;-60
2022/05/13 11:46:01;;;;;;;13.25;4.13;;;;;;;22.55;41.02;101386.00;5026597;28;20091;-60
2022/05/13 11:48:41;;;;;;;22.15;4.32;;;;;;;22.52;40.93;101386.84;5041913;28;20690;-61
2022/05/13 11:51:19;;;;;;;12.45;3.80;;;;;;;22.53;40.88;101392.97;5020093;28;20033;-60
2022/05/13 11:53:46;;;;;;;6.43;3.10;;;;;;;22.49;40.91;101406.91;5009580;28;20473;-60
2022/05/13 11:56:29;;;;;;;17.30;3.40;;;;;;;21.99;40.55;101416.75;5006203;28;20029;-60
2022/05/13 11:59:03;;;;;;;4.22;2.67;;;;;;;21.23;40.72;101413.78;5015181;28;20037;-57
2022/05/13 12:01:37;;;;;;;5.20;3.45;;;;;;;20.87;41.43;101412.25;5023143;28;20067;-59